createdAt,value
2023-02-15T00:01:59.390Z,50.58
2023-02-15T00:07:05.115Z,50.59
2023-02-15T00:12:10.572Z,49.32
2023-02-15T00:17:14.079Z,47.94
2023-02-15T00:22:17.474Z,43.05
2023-02-15T00:27:22.236Z,44.24
2023-02-15T00:32:25.652Z,43.49
2023-02-15T00:37:29.016Z,44.41
2023-02-15T00:42:33.813Z,43.26
2023-02-15T00:47:37.181Z,42.71
2023-02-15T00:52:40.599Z,56.89
2023-02-15T00:57:45.341Z,45.35
2023-02-15T01:02:50.902Z,44.53
2023-02-15T01:07:54.731Z,41.33
2023-02-15T01:12:59.644Z,41.70
2023-02-15T01:18:04.160Z,42.42
2023-02-15T01:23:08.102Z,43.17
2023-02-15T01:28:12.963Z,43.46
2023-02-15T01:33:19.061Z,43.05
2023-02-15T01:38:23.008Z,42.31
2023-02-15T01:43:41.291Z,42.13
2023-02-15T01:48:52.698Z,48.19
2023-02-15T01:54:02.217Z,49.68
2023-02-15T01:59:10.065Z,47.98
2023-02-15T02:04:20.164Z,45.40
2023-02-15T02:09:23.648Z,45.17
2023-02-15T02:14:28.794Z,46.66
2023-02-15T02:19:48.027Z,47.96
2023-02-15T02:25:19.618Z,48.05
2023-02-15T02:30:37.954Z,49.11
2023-02-15T02:35:52.110Z,47.93
2023-02-15T02:41:08.028Z,49.22
2023-02-15T02:46:19.073Z,47.36
2023-02-15T02:51:25.476Z,46.28
2023-02-15T02:56:31.649Z,43.90
2023-02-15T03:01:42.930Z,44.44
2023-02-15T03:06:51.024Z,44.09
2023-02-15T03:11:55.656Z,44.96
2023-02-15T03:17:04.058Z,46.22
2023-02-15T03:22:13.632Z,47.88
2023-02-15T03:27:21.306Z,46.32
2023-02-15T03:32:28.273Z,47.74
2023-02-15T03:37:39.546Z,44.89
2023-02-15T03:42:47.602Z,46.10
2023-02-15T03:47:54.804Z,45.43
2023-02-15T03:53:02.840Z,42.60
2023-02-15T03:58:23.910Z,43.53
2023-02-15T04:03:34.426Z,46.18
2023-02-15T04:09:02.049Z,46.25
2023-02-15T04:14:25.636Z,45.64
2023-02-15T04:19:46.770Z,47.34
2023-02-15T04:25:08.939Z,44.62
2023-02-15T04:30:13.769Z,54.19
2023-02-15T04:35:17.588Z,47.63
2023-02-15T04:40:24.487Z,46.89
2023-02-15T04:45:28.206Z,44.61
2023-02-15T04:50:31.688Z,44.27
2023-02-15T04:55:38.793Z,44.73
2023-02-15T05:00:42.346Z,48.87
2023-02-15T05:05:47.992Z,46.78
2023-02-15T05:10:52.727Z,47.02
2023-02-15T05:15:58.488Z,45.59
2023-02-15T05:21:01.927Z,48.31
2023-02-15T05:26:24.226Z,46.09
2023-02-15T05:31:29.931Z,43.13
2023-02-15T05:36:33.378Z,46.49
2023-02-15T05:41:38.152Z,49.81
2023-02-15T05:46:41.631Z,47.23
2023-02-15T05:51:44.991Z,47.64
2023-02-15T05:56:54.373Z,51.58
2023-02-15T06:02:03.165Z,48.57
2023-02-15T06:07:06.568Z,47.27
2023-02-15T06:12:15.978Z,47.69
2023-02-15T06:17:19.527Z,48.14
2023-02-15T06:22:22.859Z,46.70
2023-02-15T06:27:29.649Z,45.80
2023-02-15T06:32:35.415Z,42.76
2023-02-15T06:37:38.794Z,50.00
2023-02-15T06:42:44.680Z,50.12
2023-02-15T06:47:50.774Z,49.59
2023-02-15T06:52:57.960Z,46.80
2023-02-15T06:58:04.830Z,46.57
2023-02-15T07:03:08.313Z,44.91
2023-02-15T07:08:11.714Z,47.53
2023-02-15T07:13:16.507Z,47.49
2023-02-15T07:18:22.409Z,45.34
2023-02-15T07:23:26.329Z,47.51
2023-02-15T07:28:31.444Z,49.90
2023-02-15T07:33:35.097Z,50.94
2023-02-15T07:38:42.344Z,50.65
2023-02-15T07:43:49.523Z,50.44
2023-02-15T07:48:55.481Z,50.06
2023-02-15T07:54:01.320Z,50.97
2023-02-15T07:59:06.197Z,47.69
2023-02-15T08:04:13.022Z,48.70
2023-02-15T08:09:16.509Z,47.68
2023-02-15T08:14:23.211Z,50.23
2023-02-15T08:19:27.826Z,47.33
2023-02-15T08:24:34.652Z,48.07
2023-02-15T08:29:40.669Z,49.61
2023-02-15T08:34:46.480Z,51.60
2023-02-15T08:39:49.881Z,50.32
2023-02-15T08:44:54.773Z,57.83
2023-02-15T08:49:58.277Z,49.20
2023-02-15T08:55:01.656Z,49.88
2023-02-15T09:00:11.369Z,46.95
2023-02-15T09:05:14.771Z,48.60
2023-02-15T09:10:21.159Z,41.20
2023-02-15T09:15:26.064Z,40.41
2023-02-15T09:20:31.563Z,40.07
2023-02-15T09:25:37.810Z,40.20
2023-02-15T09:30:42.665Z,53.83
2023-02-15T09:35:48.860Z,41.19
2023-02-15T09:40:59.060Z,38.15
2023-02-15T09:46:18.049Z,42.24
2023-02-15T09:51:36.300Z,41.98
2023-02-15T09:56:48.394Z,40.74
2023-02-15T10:02:04.844Z,38.80
2023-02-15T10:07:18.570Z,39.10
2023-02-15T10:12:41.189Z,37.58
2023-02-15T10:17:56.360Z,37.72
2023-02-15T10:23:16.025Z,37.87
2023-02-15T10:28:25.857Z,41.29
2023-02-15T10:33:40.225Z,46.47
2023-02-15T10:38:52.285Z,43.71
2023-02-15T10:44:08.091Z,41.11
2023-02-15T10:49:31.585Z,45.59
2023-02-15T10:54:44.833Z,40.62
2023-02-15T11:00:03.061Z,38.17
2023-02-15T11:05:22.735Z,40.92
2023-02-15T11:10:32.387Z,40.32
2023-02-15T11:15:39.031Z,43.82
2023-02-15T11:20:49.776Z,42.90
2023-02-15T11:25:58.857Z,40.11
2023-02-15T11:31:15.387Z,43.71
2023-02-15T11:36:22.736Z,45.37
2023-02-15T11:41:32.211Z,47.60
2023-02-15T11:46:36.029Z,48.74
2023-02-15T11:51:43.051Z,47.36
2023-02-15T11:56:47.774Z,45.02
2023-02-15T12:01:52.432Z,44.03
2023-02-15T12:07:02.725Z,45.78
2023-02-15T12:12:25.846Z,44.15
2023-02-15T12:17:31.549Z,54.81
2023-02-15T12:22:38.200Z,42.79
2023-02-15T12:27:45.083Z,42.74
2023-02-15T12:32:52.789Z,45.21
2023-02-15T12:38:02.468Z,48.77
2023-02-15T12:43:27.056Z,50.44
2023-02-15T12:48:32.563Z,55.85
2023-02-15T12:53:37.473Z,54.85
2023-02-15T12:58:43.225Z,44.81
2023-02-15T13:03:58.472Z,42.21
2023-02-15T13:09:08.802Z,40.68
2023-02-15T13:14:20.305Z,40.25
2023-02-15T13:19:30.326Z,46.00
2023-02-15T13:24:38.595Z,51.20
2023-02-15T13:29:45.335Z,52.40
2023-02-15T13:34:48.805Z,54.80
2023-02-15T13:39:57.722Z,53.39
2023-02-15T13:45:21.387Z,56.51
2023-02-15T13:50:41.657Z,56.82
2023-02-15T13:55:52.696Z,56.02
2023-02-15T14:01:07.116Z,56.42
2023-02-15T14:06:18.860Z,56.52
2023-02-15T14:11:32.104Z,60.17
2023-02-15T14:16:48.028Z,55.36
2023-02-15T14:22:03.598Z,54.63
2023-02-15T14:27:16.658Z,59.71
2023-02-15T14:32:27.354Z,58.87
2023-02-15T14:37:42.598Z,58.56
2023-02-15T14:42:52.673Z,54.88
2023-02-15T14:48:06.360Z,52.47
2023-02-15T14:53:40.264Z,56.12
2023-02-15T14:58:58.584Z,64.65
2023-02-15T15:04:05.722Z,68.40
2023-02-15T15:09:14.039Z,59.91
2023-02-15T15:14:36.115Z,60.21
2023-02-15T15:20:09.330Z,58.87
2023-02-15T15:25:32.151Z,71.65
2023-02-15T15:30:53.293Z,70.19
2023-02-15T15:36:10.497Z,65.25
2023-02-15T15:41:20.319Z,61.96
2023-02-15T15:46:41.031Z,56.07
2023-02-15T15:51:46.467Z,55.67
2023-02-15T15:56:55.684Z,60.75
2023-02-15T16:02:07.994Z,65.15
2023-02-15T16:07:27.973Z,67.39
2023-02-15T16:12:36.983Z,68.57
2023-02-15T16:17:45.720Z,60.12
2023-02-15T16:23:00.097Z,67.61
2023-02-15T16:28:09.528Z,61.91
2023-02-15T16:33:16.655Z,54.75
2023-02-15T16:38:36.302Z,58.09
2023-02-15T16:43:44.600Z,52.17
2023-02-15T16:48:52.874Z,57.71
2023-02-15T16:54:04.985Z,55.30
2023-02-15T16:59:08.721Z,56.50
2023-02-15T17:04:29.628Z,57.71
2023-02-15T17:09:35.768Z,57.51
2023-02-15T17:14:41.814Z,57.87
2023-02-15T17:19:51.830Z,55.10
2023-02-15T17:25:01.000Z,57.09
2023-02-15T17:30:16.006Z,59.07
2023-02-15T17:35:21.904Z,57.45
2023-02-15T17:40:26.800Z,55.52
2023-02-15T17:45:34.294Z,54.64
2023-02-15T17:50:39.328Z,55.19
2023-02-15T17:55:43.647Z,56.35
2023-02-15T18:01:09.217Z,58.74
2023-02-15T18:06:32.559Z,55.53
2023-02-15T18:11:37.467Z,60.71
2023-02-15T18:16:45.820Z,55.74
2023-02-15T18:21:55.735Z,56.88
2023-02-15T18:26:59.200Z,58.12
2023-02-15T18:32:03.069Z,51.76
2023-02-15T18:37:13.551Z,63.19
2023-02-15T18:42:20.765Z,52.08
2023-02-15T18:47:24.233Z,52.30
2023-02-15T18:52:34.676Z,53.09
2023-02-15T18:57:38.275Z,56.76
2023-02-15T19:02:41.687Z,62.95
2023-02-15T19:07:48.590Z,55.67
2023-02-15T19:12:53.071Z,55.01
2023-02-15T19:17:56.852Z,57.13
2023-02-15T19:23:03.093Z,66.51
2023-02-15T19:28:10.274Z,69.70
2023-02-15T19:33:18.074Z,63.81
2023-02-15T19:38:26.901Z,59.92
2023-02-15T19:43:33.370Z,65.05
2023-02-15T19:48:39.279Z,66.48
2023-02-15T19:53:46.632Z,67.58
2023-02-15T19:58:51.727Z,72.07
2023-02-15T20:03:55.699Z,69.58
2023-02-15T20:09:00.624Z,68.14
2023-02-15T20:14:07.030Z,74.27
2023-02-15T20:19:13.400Z,71.88
2023-02-15T20:24:20.411Z,69.52
2023-02-15T20:29:23.797Z,71.25
2023-02-15T20:34:27.266Z,72.04
2023-02-15T20:39:35.181Z,71.82
2023-02-15T20:44:39.484Z,68.58
2023-02-15T20:49:42.959Z,68.00
2023-02-15T20:54:48.213Z,70.49
2023-02-15T20:59:51.684Z,70.77
2023-02-15T21:04:55.557Z,68.50
2023-02-15T21:10:00.576Z,69.26
2023-02-15T21:15:24.843Z,73.36
2023-02-15T21:20:29.517Z,76.69
2023-02-15T21:25:36.654Z,72.45
2023-02-15T21:30:40.128Z,75.44
2023-02-15T21:35:44.983Z,71.48
2023-02-15T21:40:50.137Z,73.90
2023-02-15T21:46:10.541Z,72.98
2023-02-15T21:51:34.033Z,71.68
2023-02-15T21:56:38.753Z,74.35
2023-02-15T22:01:43.951Z,74.91
2023-02-15T22:06:47.552Z,74.51
2023-02-15T22:11:56.092Z,75.42
2023-02-15T22:16:59.503Z,72.41
2023-02-15T22:22:05.461Z,71.67
2023-02-15T22:27:18.895Z,74.42
2023-02-15T22:32:26.442Z,76.08
2023-02-15T22:37:29.896Z,77.02
2023-02-15T22:42:34.858Z,81.75
2023-02-15T22:47:40.753Z,84.05
2023-02-15T22:52:44.145Z,85.88
2023-02-15T22:57:52.419Z,89.32
2023-02-15T23:02:56.838Z,89.76
2023-02-15T23:08:02.960Z,93.24
2023-02-15T23:13:25.432Z,94.70
2023-02-15T23:18:33.575Z,95.62
2023-02-15T23:23:38.916Z,96.55
2023-02-15T23:28:43.775Z,95.61
2023-02-15T23:33:52.629Z,97.21
2023-02-15T23:39:22.544Z,98.75
2023-02-15T23:44:31.257Z,96.11
2023-02-15T23:49:34.911Z,100.08
2023-02-15T23:54:38.385Z,97.97
2023-02-15T23:59:45.939Z,97.50
